GGOV Airport Information

Runway Information
Runway 03 Length 10499 ft width 148 ft
Elevation 129 ft Threshold 0 ft Heading 19
Runway 21 Length 10499 ft Width 148 ft
Elevation 86 ft Threshold 0 ft Heading 199
Airport Frequencies
Type A/G Name A/G VOICE Frequency 343.2 MHZ
Type APP Name APP Frequency 123.9 MHZ
Type TWR Name TWR Frequency 124.3 MHZ
Airport Navaids
Type VOR-DME Name Bissau/Oswaldo Vieira Frequency 114300 KHZ
Type NDB Name Bissau/Oswaldo Vieira Frequency 325 KHZ
Airport Weather Information & NOTAM
ADDS - METARS form results

(1225 UTC 05 December 2020)
Data provider http://aviationweather.gov/metar/data/
 
METAR text: GGOV 051200Z 03006KT 340V090 CAVOK 30/16 Q1013 NOSIG
Conditions at: GGOV (BISSAU (CIV/MIL), GW) observed 1200 UTC 05 December 2020
Temperature: 30.0°C (86°F)
Dewpoint: 16.0°C (61°F) [RH = 43%]
Pressure (altimeter): 29.91 inches Hg (1013.0 mb)
Winds: from the NNE (30 degrees) at 7 MPH (6 knots; 3.1 m/s)
Visibility: 6 or more miles (10+ km)
Ceiling: ceiling and visibility are OK
Clouds: unknown
Weather: no significant weather observed at this time

Forecast for: GGOV (BISSAU (CIV/MIL), GW)
Text: TAF GGOV 051100Z 0512/0612 04005KT CAVOK
Forecast period: 1200 UTC 05 December 2020 to 1200 UTC 06 December 2020
Forecast type: FROM: standard forecast or significant change
Winds: from the NE (40 degrees) at 6 MPH (5 knots; 2.6 m/s)
Visibility: 6 or more miles (10+ km)
Ceiling: unknown
Clouds: missing
Weather: NSW  (no significant weather)